Stewart, Canada
Current Conditions -  °F | °C
As of 11:53 PM on Sunday 21 Dec 2014 (Local Time) from PAKT Reporting Station
Light Rain Light Rain  
Wind Chill: 41°   Ceiling: 1900
Heat Index: 41°   Visibility: 10mi
Dew Point: 39°   Wind: 0mph
Humidity: 93%   Direction: NA
Pressure: 29.83"   Gusts: NA
Location:  55.93°N, 130°W
Report Text: PAKT 220753Z AUTO 00000KT 10SM -RA BKN019 BKN024 OVC034 05/04 A2983 RMK AO2 RAB23 SLP100 P0001 T00500039 TSNO
Loading
Personal Weather Stations






























Interactive Weather Map New forecast layout! Learn more

10-Day Weather Forecast

Advertisements
Track Severe Weather on mobile